Time;durP1;ratioP1;P1;durP2;ratioP2;P2;SDS_P1;SDS_P2;PMS_P1;PMS_P2;Temp;Humidity;BMP_temperature;BMP_pressure;BME280_temperature;BME280_humidity;BME280_pressure;Samples;Min_cycle;Max_cycle;Signal;HPM_P1;HPM_P2
2023/09/23 00:00:40;;;;;;;2.88;1.00;;;;;;;;;;2090982;28;20029;-58
2023/09/23 00:01:41;;;;;;;1.88;1.10;;;;;;;;;;2090575;28;20087;-58
2023/09/23 00:02:44;;;;;;;2.75;1.45;;;;;;;;;;2090278;28;20037;-59
2023/09/23 00:03:45;;;;;;;1.52;1.10;;;;;;;;;;2090742;28;20487;-59
2023/09/23 00:04:45;;;;;;;2.50;1.10;;;;;;;;;;2090538;28;20048;-58
2023/09/23 00:05:46;;;;;;;2.42;1.05;;;;;;;;;;2090932;28;20045;-58
2023/09/23 00:06:49;;;;;;;2.88;1.23;;;;;;;;;;2090596;28;20025;-59
2023/09/23 00:07:50;;;;;;;2.60;1.00;;;;;;;;;;2089873;28;20048;-59
2023/09/23 00:08:50;;;;;;;2.40;1.27;;;;;;;;;;2090043;28;20401;-58
2023/09/23 00:09:53;;;;;;;4.75;1.30;;;;;;;;;;2090669;28;20049;-59
2023/09/23 00:10:54;;;;;;;1.40;0.90;;;;;;;;;;2090471;28;20032;-59
2023/09/23 00:11:55;;;;;;;3.63;1.27;;;;;;;;;;2090494;28;20454;-59
2023/09/23 00:12:55;;;;;;;2.28;1.17;;;;;;;;;;2090481;28;20507;-58
2023/09/23 00:13:56;;;;;;;3.08;1.20;;;;;;;;;;2090399;28;20041;-59
2023/09/23 00:14:57;;;;;;;2.15;1.25;;;;;;;;;;2090333;28;20044;-59
2023/09/23 00:15:58;;;;;;;2.13;1.10;;;;;;;;;;2090446;28;20128;-59
2023/09/23 00:16:59;;;;;;;2.13;1.23;;;;;;;;;;2090366;28;20025;-59
2023/09/23 00:18:00;;;;;;;3.30;1.40;;;;;;;;;;2090062;28;20469;-59
2023/09/23 00:19:02;;;;;;;1.60;1.20;;;;;;;;;;2090757;28;20040;-58
2023/09/23 00:20:06;;;;;;;2.53;1.40;;;;;;;;;;2090388;28;20045;-59
2023/09/23 00:21:08;;;;;;;3.90;1.20;;;;;;;;;;2090457;28;20045;-59
2023/09/23 00:22:09;;;;;;;2.17;1.40;;;;;;;;;;2090810;28;20407;-59
2023/09/23 00:23:09;;;;;;;2.10;1.30;;;;;;;;;;2091176;28;20033;-59
2023/09/23 00:24:10;;;;;;;3.08;1.58;;;;;;;;;;2091690;28;20397;-59
2023/09/23 00:25:13;;;;;;;2.45;1.40;;;;;;;;;;2091346;28;20096;-60
2023/09/23 00:26:17;;;;;;;2.60;1.40;;;;;;;;;;2091445;28;20045;-59
2023/09/23 00:27:21;;;;;;;3.92;1.70;;;;;;;;;;2083502;28;20045;-59
2023/09/23 00:28:25;;;;;;;3.05;1.48;;;;;;;;;;2091082;28;20041;-58
2023/09/23 00:29:29;;;;;;;2.38;1.33;;;;;;;;;;2090340;28;20033;-58
2023/09/23 00:30:29;;;;;;;2.03;1.40;;;;;;;;;;2089631;28;20048;-59
2023/09/23 00:31:30;;;;;;;2.60;1.45;;;;;;;;;;2089923;28;20523;-58
2023/09/23 00:32:32;;;;;;;2.50;1.60;;;;;;;;;;2089655;28;20041;-59
2023/09/23 00:33:37;;;;;;;3.72;1.92;;;;;;;;;;2089843;28;20062;-59
2023/09/23 00:34:39;;;;;;;2.72;1.60;;;;;;;;;;2090095;28;20041;-59
2023/09/23 00:35:41;;;;;;;2.20;1.50;;;;;;;;;;2089865;28;20523;-59
2023/09/23 00:36:41;;;;;;;2.42;1.77;;;;;;;;;;2090379;28;20025;-59
2023/09/23 00:37:43;;;;;;;2.13;1.35;;;;;;;;;;2090389;28;20385;-60
2023/09/23 00:38:44;;;;;;;2.70;1.70;;;;;;;;;;2081476;28;20037;-57
2023/09/23 00:39:45;;;;;;;3.35;2.03;;;;;;;;;;2081530;28;20040;-57
2023/09/23 00:40:47;;;;;;;5.57;2.00;;;;;;;;;;2090370;28;20040;-57
2023/09/23 00:41:47;;;;;;;2.60;1.98;;;;;;;;;;2090356;28;20029;-59
2023/09/23 00:42:48;;;;;;;3.35;1.80;;;;;;;;;;2089986;28;20041;-58
2023/09/23 00:43:50;;;;;;;2.70;2.00;;;;;;;;;;2089999;28;20033;-58
2023/09/23 00:44:51;;;;;;;3.60;2.30;;;;;;;;;;2089602;28;20040;-59
2023/09/23 00:45:54;;;;;;;3.03;2.05;;;;;;;;;;2089571;28;20059;-59
2023/09/23 00:46:55;;;;;;;5.00;2.40;;;;;;;;;;2089672;28;20044;-56
2023/09/23 00:47:56;;;;;;;3.40;2.53;;;;;;;;;;2088822;28;20045;-59
2023/09/23 00:48:58;;;;;;;4.40;2.42;;;;;;;;;;2089603;28;20045;-59
2023/09/23 00:50:16;;;;;;;3.03;2.15;;;;;;;;;;2089383;28;20139;-59
2023/09/23 00:51:18;;;;;;;4.10;2.88;;;;;;;;;;2083728;28;20037;-59
2023/09/23 00:52:18;;;;;;;5.40;2.95;;;;;;;;;;2075953;28;20038;-59
2023/09/23 00:53:20;;;;;;;3.38;2.53;;;;;;;;;;2073136;28;20057;-59
2023/09/23 00:54:21;;;;;;;4.20;2.58;;;;;;;;;;2089193;28;20052;-59
2023/09/23 00:55:25;;;;;;;4.28;2.47;;;;;;;;;;2090187;28;20033;-59
2023/09/23 00:56:30;;;;;;;3.88;2.30;;;;;;;;;;2089469;28;20049;-59
2023/09/23 00:57:31;;;;;;;4.65;2.58;;;;;;;;;;2089239;28;20044;-59
2023/09/23 00:58:36;;;;;;;4.72;2.50;;;;;;;;;;2089591;28;20029;-59
2023/09/23 00:59:40;;;;;;;3.95;2.53;;;;;;;;;;2089456;28;20049;-59
2023/09/23 01:00:43;;;;;;;6.65;3.13;;;;;;;;;;2089605;28;20041;-59
2023/09/23 01:01:43;;;;;;;2.90;2.40;;;;;;;;;;2081282;28;20429;-59
2023/09/23 01:02:47;;;;;;;5.22;3.22;;;;;;;;;;2080985;28;20133;-59
2023/09/23 01:03:47;;;;;;;4.38;2.80;;;;;;;;;;2089834;28;20041;-59
2023/09/23 01:04:50;;;;;;;3.67;2.80;;;;;;;;;;2089949;28;20037;-59
2023/09/23 01:06:16;;;;;;;4.55;3.33;;;;;;;;;;2090308;28;20041;-59
2023/09/23 01:07:17;;;;;;;3.97;2.80;;;;;;;;;;2090303;28;20041;-59
2023/09/23 01:08:19;;;;;;;3.67;2.83;;;;;;;;;;2090106;28;20056;-59
2023/09/23 01:09:21;;;;;;;4.68;2.97;;;;;;;;;;2089315;28;20045;-59
2023/09/23 01:10:23;;;;;;;5.85;3.20;;;;;;;;;;2089545;28;20057;-59
2023/09/23 01:11:26;;;;;;;4.95;3.50;;;;;;;;;;2089594;28;20063;-59
2023/09/23 01:12:27;;;;;;;3.53;2.95;;;;;;;;;;2081945;28;20335;-59
2023/09/23 01:13:30;;;;;;;5.18;3.67;;;;;;;;;;2089324;28;20083;-59
2023/09/23 01:14:31;;;;;;;3.95;2.80;;;;;;;;;;2090088;28;20044;-59
2023/09/23 01:15:32;;;;;;;4.57;2.72;;;;;;;;;;2090105;28;20032;-59
2023/09/23 01:16:33;;;;;;;4.22;3.28;;;;;;;;;;2090147;28;20393;-59
2023/09/23 01:17:34;;;;;;;6.82;3.35;;;;;;;;;;2089850;28;20037;-59
2023/09/23 01:18:35;;;;;;;3.83;2.97;;;;;;;;;;2090053;28;20052;-59
2023/09/23 01:19:35;;;;;;;4.18;3.10;;;;;;;;;;2090781;28;20045;-59
2023/09/23 01:20:37;;;;;;;4.78;3.13;;;;;;;;;;2090127;28;20393;-60
2023/09/23 01:21:38;;;;;;;4.35;3.50;;;;;;;;;;2090123;28;20052;-59
2023/09/23 01:22:39;;;;;;;5.00;2.97;;;;;;;;;;2090049;28;20040;-59
2023/09/23 01:23:43;;;;;;;4.53;3.20;;;;;;;;;;2089507;28;20492;-60
2023/09/23 01:24:45;;;;;;;3.20;2.78;;;;;;;;;;2089685;28;20393;-59
2023/09/23 01:25:45;;;;;;;5.90;2.90;;;;;;;;;;2088990;28;20107;-59
2023/09/23 01:26:51;;;;;;;4.05;2.75;;;;;;;;;;2089384;28;20063;-58
2023/09/23 01:27:52;;;;;;;12.57;2.78;;;;;;;;;;2097027;28;20044;-59
2023/09/23 01:28:53;;;;;;;4.85;3.20;;;;;;;;;;2090128;28;20139;-57
2023/09/23 01:29:54;;;;;;;5.18;3.33;;;;;;;;;;2089991;28;20037;-59
2023/09/23 01:30:55;;;;;;;4.15;2.75;;;;;;;;;;2089571;28;20528;-59
2023/09/23 01:32:04;;;;;;;5.05;3.10;;;;;;;;;;2090284;28;20033;-59
2023/09/23 01:33:07;;;;;;;4.68;2.97;;;;;;;;;;2089398;28;20037;-59
2023/09/23 01:34:09;;;;;;;3.85;2.70;;;;;;;;;;2089197;28;20068;-59
2023/09/23 01:35:11;;;;;;;3.83;2.42;;;;;;;;;;2089531;28;20052;-59
2023/09/23 01:36:11;;;;;;;5.40;2.67;;;;;;;;;;2089111;28;20041;-59
2023/09/23 01:37:13;;;;;;;3.05;2.60;;;;;;;;;;2090140;28;20036;-60
2023/09/23 01:38:15;;;;;;;5.70;2.78;;;;;;;;;;2090211;28;20048;-60
2023/09/23 01:39:15;;;;;;;4.47;2.63;;;;;;;;;;2090457;28;20059;-59
2023/09/23 01:40:17;;;;;;;4.47;2.45;;;;;;;;;;2089690;28;20049;-59
2023/09/23 01:41:18;;;;;;;3.30;2.58;;;;;;;;;;2090151;28;20029;-59
2023/09/23 01:42:18;;;;;;;4.38;2.75;;;;;;;;;;2090627;28;20497;-59
2023/09/23 01:43:20;;;;;;;5.25;2.58;;;;;;;;;;2091174;28;20036;-59
2023/09/23 01:44:21;;;;;;;5.75;3.72;;;;;;;;;;2091524;28;20044;-59
2023/09/23 01:45:22;;;;;;;4.90;3.22;;;;;;;;;;2091015;28;20079;-59
2023/09/23 01:46:22;;;;;;;4.55;3.30;;;;;;;;;;2090819;28;20428;-59
2023/09/23 01:47:23;;;;;;;3.88;3.00;;;;;;;;;;2091658;28;20086;-59
2023/09/23 01:48:24;;;;;;;4.80;3.05;;;;;;;;;;2091848;28;20033;-59
2023/09/23 01:49:25;;;;;;;6.00;3.40;;;;;;;;;;2091594;28;20158;-59
2023/09/23 01:50:26;;;;;;;4.40;3.40;;;;;;;;;;2090998;28;20052;-59
2023/09/23 01:51:27;;;;;;;4.65;2.85;;;;;;;;;;2090983;28;20056;-59
2023/09/23 01:52:29;;;;;;;6.45;2.90;;;;;;;;;;2091554;28;20048;-59
2023/09/23 01:53:31;;;;;;;6.25;3.20;;;;;;;;;;2091652;28;20044;-59
2023/09/23 01:54:32;;;;;;;4.97;3.25;;;;;;;;;;2091304;28;20052;-59
2023/09/23 01:55:33;;;;;;;4.78;3.00;;;;;;;;;;2091140;28;20037;-59
2023/09/23 01:56:36;;;;;;;3.53;3.03;;;;;;;;;;2083199;28;20052;-60
2023/09/23 01:57:36;;;;;;;4.20;3.00;;;;;;;;;;2083004;28;20037;-59
2023/09/23 01:58:37;;;;;;;3.92;3.20;;;;;;;;;;2090822;28;20056;-59
2023/09/23 01:59:40;;;;;;;4.32;3.25;;;;;;;;;;2090353;28;20520;-57
2023/09/23 02:00:41;;;;;;;6.18;3.40;;;;;;;;;;2082878;28;20033;-57
2023/09/23 02:01:44;;;;;;;5.10;3.35;;;;;;;;;;2090898;28;20396;-58
2023/09/23 02:02:44;;;;;;;5.15;3.03;;;;;;;;;;2090957;28;20040;-59
2023/09/23 02:03:45;;;;;;;4.85;3.40;;;;;;;;;;2090947;28;20174;-59
2023/09/23 02:04:47;;;;;;;4.72;3.70;;;;;;;;;;2091601;28;20072;-59
2023/09/23 02:05:48;;;;;;;5.22;3.75;;;;;;;;;;2091336;28;20045;-58
2023/09/23 02:06:49;;;;;;;6.75;3.38;;;;;;;;;;2091012;28;20049;-59
2023/09/23 02:07:50;;;;;;;4.43;3.40;;;;;;;;;;2090978;28;20033;-59
2023/09/23 02:08:51;;;;;;;6.22;3.70;;;;;;;;;;2091401;28;20044;-59
2023/09/23 02:09:54;;;;;;;5.40;3.50;;;;;;;;;;2090883;28;20465;-59
2023/09/23 02:10:56;;;;;;;5.68;3.70;;;;;;;;;;2090326;28;20226;-59
2023/09/23 02:11:57;;;;;;;5.75;3.22;;;;;;;;;;2091426;28;20029;-59
2023/09/23 02:12:58;;;;;;;6.38;3.63;;;;;;;;;;2091143;28;20400;-59
2023/09/23 02:14:01;;;;;;;5.60;3.40;;;;;;;;;;2090954;28;20037;-59
2023/09/23 02:15:02;;;;;;;5.47;3.40;;;;;;;;;;2090707;28;20048;-59
2023/09/23 02:16:04;;;;;;;4.35;3.53;;;;;;;;;;2090407;28;20044;-59
2023/09/23 02:17:05;;;;;;;4.68;3.58;;;;;;;;;;2090894;28;20032;-59
2023/09/23 02:18:06;;;;;;;3.70;3.05;;;;;;;;;;2091088;28;20049;-59
2023/09/23 02:19:07;;;;;;;6.68;3.33;;;;;;;;;;2091204;28;20071;-59
2023/09/23 02:20:21;;;;;;;4.32;2.90;;;;;;;;;;2091444;28;20036;-59
2023/09/23 02:21:23;;;;;;;5.20;3.13;;;;;;;;;;2084224;28;20037;-59
2023/09/23 02:22:24;;;;;;;4.20;3.20;;;;;;;;;;2082181;28;20409;-59
2023/09/23 02:23:25;;;;;;;5.82;2.78;;;;;;;;;;2090499;28;20060;-59
2023/09/23 02:24:25;;;;;;;5.95;3.60;;;;;;;;;;2090984;28;20045;-59
2023/09/23 02:25:27;;;;;;;4.68;3.00;;;;;;;;;;2090787;28;20062;-59
2023/09/23 02:26:27;;;;;;;5.25;3.00;;;;;;;;;;2090940;28;20045;-59
2023/09/23 02:27:28;;;;;;;4.00;2.72;;;;;;;;;;2091076;28;20049;-59
2023/09/23 02:28:29;;;;;;;4.63;3.10;;;;;;;;;;2091381;28;20568;-59
2023/09/23 02:29:30;;;;;;;4.28;3.05;;;;;;;;;;2090471;28;20053;-59
2023/09/23 02:30:32;;;;;;;4.28;2.92;;;;;;;;;;2090818;28;20039;-59
2023/09/23 02:31:35;;;;;;;6.15;3.17;;;;;;;;;;2090987;28;20397;-59
2023/09/23 02:32:43;;;;;;;4.75;2.97;;;;;;;;;;2090399;28;20056;-59
2023/09/23 02:33:44;;;;;;;4.13;2.80;;;;;;;;;;2090880;28;20032;-59
2023/09/23 02:34:45;;;;;;;3.38;2.58;;;;;;;;;;2091291;28;20032;-59
2023/09/23 02:35:46;;;;;;;5.30;3.05;;;;;;;;;;2090854;28;20440;-59
2023/09/23 02:36:47;;;;;;;4.15;3.00;;;;;;;;;;2089944;28;20086;-59
2023/09/23 02:37:48;;;;;;;5.18;3.15;;;;;;;;;;2090607;28;20532;-59
2023/09/23 02:38:48;;;;;;;5.78;3.35;;;;;;;;;;2090305;28;20044;-59
2023/09/23 02:39:49;;;;;;;5.78;2.90;;;;;;;;;;2082860;28;20071;-59
2023/09/23 02:40:53;;;;;;;5.20;2.85;;;;;;;;;;2082452;28;20037;-59
2023/09/23 02:41:53;;;;;;;6.43;3.00;;;;;;;;;;2082550;28;20040;-58
2023/09/23 02:42:54;;;;;;;7.93;3.22;;;;;;;;;;2082264;28;20040;-59
2023/09/23 02:43:55;;;;;;;6.80;2.67;;;;;;;;;;2090646;28;20523;-57
2023/09/23 02:44:56;;;;;;;5.93;2.80;;;;;;;;;;2091290;28;20041;-59
2023/09/23 02:45:58;;;;;;;5.00;2.90;;;;;;;;;;2090816;28;20123;-59
2023/09/23 02:46:59;;;;;;;6.43;2.60;;;;;;;;;;2090983;28;20052;-59
2023/09/23 02:47:59;;;;;;;4.05;2.63;;;;;;;;;;2090826;28;20052;-57
2023/09/23 02:49:00;;;;;;;10.15;3.15;;;;;;;;;;2091145;28;20045;-57
2023/09/23 02:50:01;;;;;;;4.38;2.50;;;;;;;;;;2090464;28;20045;-59
2023/09/23 02:51:04;;;;;;;5.43;3.38;;;;;;;;;;2090786;28;20409;-59
2023/09/23 02:52:06;;;;;;;6.25;3.08;;;;;;;;;;2082542;28;20041;-57
2023/09/23 02:53:07;;;;;;;3.83;2.60;;;;;;;;;;2090139;28;20041;-59
2023/09/23 02:54:09;;;;;;;4.00;2.83;;;;;;;;;;2090590;28;20033;-57
2023/09/23 02:55:12;;;;;;;4.38;3.28;;;;;;;;;;2098322;28;20044;-59
2023/09/23 02:56:12;;;;;;;5.15;3.30;;;;;;;;;;2091137;28;20037;-59
2023/09/23 02:57:13;;;;;;;4.95;3.38;;;;;;;;;;2090302;28;20045;-59
2023/09/23 02:58:14;;;;;;;5.88;3.35;;;;;;;;;;2090475;28;20029;-59
2023/09/23 02:59:18;;;;;;;4.97;3.58;;;;;;;;;;2091378;28;20049;-59
2023/09/23 03:00:19;;;;;;;4.03;3.25;;;;;;;;;;2091009;28;20033;-59
2023/09/23 03:01:20;;;;;;;5.70;3.53;;;;;;;;;;2091062;28;20056;-59
2023/09/23 03:02:24;;;;;;;8.05;3.80;;;;;;;;;;2090970;28;20040;-59
2023/09/23 03:03:27;;;;;;;5.65;3.63;;;;;;;;;;2091125;28;20037;-59
2023/09/23 03:04:32;;;;;;;10.02;4.10;;;;;;;;;;2090314;28;20037;-59
2023/09/23 03:05:38;;;;;;;6.60;3.97;;;;;;;;;;2090428;28;20040;-59
2023/09/23 03:06:40;;;;;;;5.45;3.67;;;;;;;;;;2091019;28;20055;-59
2023/09/23 03:07:40;;;;;;;6.55;3.88;;;;;;;;;;2091192;28;20041;-58
2023/09/23 03:08:47;;;;;;;5.70;3.60;;;;;;;;;;2090812;28;20044;-58
2023/09/23 03:09:55;;;;;;;6.18;3.63;;;;;;;;;;2091354;28;20048;-58
2023/09/23 03:11:02;;;;;;;5.75;3.45;;;;;;;;;;2090104;28;20041;-59
2023/09/23 03:12:03;;;;;;;5.18;3.33;;;;;;;;;;2083323;28;20045;-58
2023/09/23 03:13:07;;;;;;;3.38;2.60;;;;;;;;;;2081735;28;20042;-58
2023/09/23 03:14:17;;;;;;;6.00;3.30;;;;;;;;;;2090238;28;20036;-58
2023/09/23 03:15:22;;;;;;;6.18;3.22;;;;;;;;;;2090107;28;20052;-58
2023/09/23 03:16:28;;;;;;;4.60;3.20;;;;;;;;;;2090343;28;20044;-58
2023/09/23 03:17:31;;;;;;;4.80;3.30;;;;;;;;;;2091140;28;20445;-59
2023/09/23 03:18:36;;;;;;;5.32;3.10;;;;;;;;;;2090911;28;20473;-58
2023/09/23 03:19:38;;;;;;;6.10;3.45;;;;;;;;;;2090480;28;20033;-59
2023/09/23 03:20:40;;;;;;;4.93;3.03;;;;;;;;;;2089929;28;20446;-59
2023/09/23 03:21:42;;;;;;;8.73;3.50;;;;;;;;;;2082391;28;20045;-59
2023/09/23 03:22:43;;;;;;;5.43;2.83;;;;;;;;;;2082373;28;20045;-58
2023/09/23 03:23:44;;;;;;;4.75;3.10;;;;;;;;;;2090134;28;20041;-58
2023/09/23 03:24:48;;;;;;;4.60;3.28;;;;;;;;;;2090343;28;20037;-59
2023/09/23 03:25:51;;;;;;;5.53;3.08;;;;;;;;;;2089916;28;20501;-59
2023/09/23 03:26:55;;;;;;;5.25;3.17;;;;;;;;;;2082146;28;20064;-59
2023/09/23 03:27:57;;;;;;;7.00;3.15;;;;;;;;;;2082616;28;20044;-59
2023/09/23 03:28:58;;;;;;;3.92;2.97;;;;;;;;;;2082216;28;20045;-58
2023/09/23 03:30:00;;;;;;;6.15;3.10;;;;;;;;;;2081960;28;20489;-59
2023/09/23 03:31:05;;;;;;;4.78;3.50;;;;;;;;;;2082432;28;20509;-58
2023/09/23 03:32:07;;;;;;;6.63;3.60;;;;;;;;;;2082203;28;20038;-59
2023/09/23 03:33:08;;;;;;;4.82;3.20;;;;;;;;;;2090158;28;20557;-59
2023/09/23 03:34:13;;;;;;;7.95;3.38;;;;;;;;;;2082488;28;20040;-59
2023/09/23 03:35:17;;;;;;;5.32;3.08;;;;;;;;;;2082315;28;20048;-58
2023/09/23 03:36:20;;;;;;;6.88;3.25;;;;;;;;;;2090108;28;20056;-59
2023/09/23 03:37:22;;;;;;;4.30;2.90;;;;;;;;;;2090150;28;20421;-58
2023/09/23 03:38:24;;;;;;;4.07;2.85;;;;;;;;;;2090011;28;20485;-59
2023/09/23 03:39:26;;;;;;;7.03;3.45;;;;;;;;;;2090821;28;20029;-59
2023/09/23 03:40:29;;;;;;;5.05;3.20;;;;;;;;;;2090117;28;20420;-58
2023/09/23 03:41:30;;;;;;;5.03;3.17;;;;;;;;;;2090189;28;20045;-59
2023/09/23 03:42:31;;;;;;;5.30;3.03;;;;;;;;;;2089860;28;20452;-58
2023/09/23 03:43:31;;;;;;;4.75;3.15;;;;;;;;;;2089866;28;20056;-58
2023/09/23 03:44:35;;;;;;;5.75;3.45;;;;;;;;;;2089461;28;20065;-59
2023/09/23 03:45:38;;;;;;;7.28;3.75;;;;;;;;;;2090165;28;20043;-58
2023/09/23 03:46:39;;;;;;;5.75;3.60;;;;;;;;;;2090669;28;20408;-59
2023/09/23 03:47:41;;;;;;;5.35;2.97;;;;;;;;;;2089051;28;20047;-58
2023/09/23 03:48:43;;;;;;;5.60;3.00;;;;;;;;;;2090064;28;20060;-58
2023/09/23 03:49:43;;;;;;;5.43;3.67;;;;;;;;;;2090514;28;20373;-58
2023/09/23 03:50:44;;;;;;;5.70;4.10;;;;;;;;;;2090130;28;20041;-59
2023/09/23 03:51:45;;;;;;;5.32;3.60;;;;;;;;;;2090201;28;20037;-66
2023/09/23 03:52:47;;;;;;;5.35;3.50;;;;;;;;;;2092006;28;20033;-64
2023/09/23 03:53:54;;;;;;;5.20;3.75;;;;;;;;;;2091665;28;20048;-58
2023/09/23 03:54:55;;;;;;;8.50;4.57;;;;;;;;;;2091257;28;20480;-61
2023/09/23 03:55:59;;;;;;;5.85;4.03;;;;;;;;;;2083304;28;20042;-60
2023/09/23 03:57:00;;;;;;;6.93;3.88;;;;;;;;;;2091535;28;20041;-59
2023/09/23 03:58:03;;;;;;;5.97;4.25;;;;;;;;;;2082023;28;20421;-58
2023/09/23 03:59:05;;;;;;;6.97;4.32;;;;;;;;;;2090251;28;20083;-59
2023/09/23 04:00:16;;;;;;;7.68;4.60;;;;;;;;;;2090634;28;20045;-59
2023/09/23 04:01:17;;;;;;;6.40;4.32;;;;;;;;;;2089835;28;20056;-59
2023/09/23 04:02:18;;;;;;;6.22;4.72;;;;;;;;;;2089980;28;20041;-59
2023/09/23 04:03:19;;;;;;;6.28;4.60;;;;;;;;;;2081560;28;20106;-58
2023/09/23 04:04:20;;;;;;;6.82;4.72;;;;;;;;;;2089444;28;20045;-59
2023/09/23 04:05:20;;;;;;;9.32;4.95;;;;;;;;;;2089926;28;20409;-58
2023/09/23 04:06:21;;;;;;;9.90;4.63;;;;;;;;;;2089665;28;20131;-59
2023/09/23 04:07:22;;;;;;;7.28;5.18;;;;;;;;;;2089916;28;20045;-59
2023/09/23 04:08:23;;;;;;;6.82;4.88;;;;;;;;;;2090147;28;20104;-59
2023/09/23 04:09:24;;;;;;;6.60;4.40;;;;;;;;;;2090479;28;20037;-59
2023/09/23 04:10:25;;;;;;;6.57;5.07;;;;;;;;;;2090679;28;20087;-58
2023/09/23 04:11:26;;;;;;;7.15;4.72;;;;;;;;;;2090642;28;20124;-59
2023/09/23 04:12:26;;;;;;;6.45;5.13;;;;;;;;;;2090325;28;20048;-59
2023/09/23 04:13:27;;;;;;;8.63;5.25;;;;;;;;;;2090514;28;20045;-59
2023/09/23 04:14:28;;;;;;;7.63;5.43;;;;;;;;;;2090603;28;20382;-58
2023/09/23 04:15:30;;;;;;;6.80;5.57;;;;;;;;;;2090370;28;20029;-58
2023/09/23 04:16:31;;;;;;;9.63;6.30;;;;;;;;;;2090629;28;20052;-59
2023/09/23 04:17:31;;;;;;;6.85;5.60;;;;;;;;;;2090413;28;20381;-62
2023/09/23 04:18:32;;;;;;;11.93;5.93;;;;;;;;;;2090633;28;20029;-59
2023/09/23 04:19:33;;;;;;;8.38;5.90;;;;;;;;;;2090076;28;20041;-58
2023/09/23 04:20:34;;;;;;;9.52;6.28;;;;;;;;;;2090396;28;20040;-58
2023/09/23 04:21:34;;;;;;;9.63;6.65;;;;;;;;;;2089957;28;20032;-59
2023/09/23 04:22:38;;;;;;;9.23;6.35;;;;;;;;;;2089563;28;20048;-59
2023/09/23 04:23:39;;;;;;;10.43;6.20;;;;;;;;;;2090645;28;20037;-58
2023/09/23 04:24:40;;;;;;;8.48;6.22;;;;;;;;;;2090560;28;20033;-59
2023/09/23 04:25:42;;;;;;;9.15;6.53;;;;;;;;;;2090733;28;20041;-58
2023/09/23 04:26:43;;;;;;;8.45;6.38;;;;;;;;;;2090378;28;20045;-58
2023/09/23 04:27:44;;;;;;;9.93;7.13;;;;;;;;;;2090393;28;20386;-59
2023/09/23 04:28:47;;;;;;;10.68;7.25;;;;;;;;;;2090238;28;20041;-59
2023/09/23 04:29:48;;;;;;;8.07;6.82;;;;;;;;;;2090423;28;20025;-59
2023/09/23 04:30:55;;;;;;;10.15;7.53;;;;;;;;;;2090737;28;20029;-58
2023/09/23 04:31:56;;;;;;;8.90;6.53;;;;;;;;;;2090516;28;20033;-58
2023/09/23 04:32:57;;;;;;;9.32;7.35;;;;;;;;;;2090236;28;20051;-58
2023/09/23 04:33:59;;;;;;;10.38;6.63;;;;;;;;;;2090319;28;20477;-59
2023/09/23 04:34:59;;;;;;;9.88;7.50;;;;;;;;;;2090352;28;20048;-58
2023/09/23 04:36:00;;;;;;;10.43;6.38;;;;;;;;;;2090322;28;20029;-59
2023/09/23 04:37:01;;;;;;;7.28;5.78;;;;;;;;;;2090323;28;20048;-58
2023/09/23 04:38:02;;;;;;;9.23;6.93;;;;;;;;;;2089656;28;20037;-58
2023/09/23 04:39:06;;;;;;;8.80;6.45;;;;;;;;;;2089721;28;20448;-59
2023/09/23 04:40:10;;;;;;;8.88;7.13;;;;;;;;;;2090405;28;20032;-59
2023/09/23 04:41:11;;;;;;;8.10;6.75;;;;;;;;;;2090401;28;20055;-59
2023/09/23 04:42:12;;;;;;;9.98;6.65;;;;;;;;;;2090730;28;20041;-59
2023/09/23 04:43:13;;;;;;;9.50;6.75;;;;;;;;;;2090084;28;20052;-59
2023/09/23 04:44:13;;;;;;;9.35;6.13;;;;;;;;;;2090912;28;20048;-59
2023/09/23 04:45:14;;;;;;;10.43;7.50;;;;;;;;;;2090850;28;20041;-58
2023/09/23 04:46:16;;;;;;;11.85;7.25;;;;;;;;;;2090375;28;20473;-59
2023/09/23 04:47:19;;;;;;;8.02;6.65;;;;;;;;;;2090307;28;20159;-59
2023/09/23 04:48:20;;;;;;;10.80;7.10;;;;;;;;;;2090323;28;20049;-59
2023/09/23 04:49:21;;;;;;;9.77;6.53;;;;;;;;;;2090358;28;20028;-59
2023/09/23 04:50:27;;;;;;;11.60;6.80;;;;;;;;;;2090528;28;20092;-59
2023/09/23 04:51:28;;;;;;;8.63;6.90;;;;;;;;;;2090396;28;20045;-59
2023/09/23 04:52:29;;;;;;;11.18;6.60;;;;;;;;;;2090041;28;20048;-59
2023/09/23 04:53:29;;;;;;;10.40;7.03;;;;;;;;;;2090255;28;20041;-59
2023/09/23 04:54:30;;;;;;;9.02;6.50;;;;;;;;;;2089944;28;20428;-59
2023/09/23 04:55:32;;;;;;;9.18;6.97;;;;;;;;;;2090165;28;20064;-59
2023/09/23 04:56:33;;;;;;;8.57;6.78;;;;;;;;;;2090422;28;20468;-59
2023/09/23 04:57:33;;;;;;;9.52;6.80;;;;;;;;;;2090461;28;20032;-59
2023/09/23 04:58:35;;;;;;;9.18;6.65;;;;;;;;;;2090229;28;20037;-59
2023/09/23 04:59:35;;;;;;;8.60;6.50;;;;;;;;;;2089897;28;20045;-59
2023/09/23 05:00:36;;;;;;;9.18;7.50;;;;;;;;;;2089664;28;20120;-59
2023/09/23 05:01:37;;;;;;;10.10;7.35;;;;;;;;;;2090305;28;20043;-59
2023/09/23 05:02:41;;;;;;;10.27;7.13;;;;;;;;;;2090478;28;20057;-59
2023/09/23 05:03:42;;;;;;;12.07;7.65;;;;;;;;;;2090199;28;20045;-59
2023/09/23 05:04:46;;;;;;;10.75;7.47;;;;;;;;;;2089866;28;20037;-59
2023/09/23 05:05:47;;;;;;;11.73;7.80;;;;;;;;;;2089672;28;20048;-59
2023/09/23 05:06:47;;;;;;;12.52;7.63;;;;;;;;;;2089678;28;20072;-59
2023/09/23 05:07:48;;;;;;;11.00;7.88;;;;;;;;;;2090335;28;20048;-59
2023/09/23 05:08:49;;;;;;;11.20;8.20;;;;;;;;;;2090911;28;20048;-59
2023/09/23 05:09:49;;;;;;;11.20;8.18;;;;;;;;;;2089905;28;20037;-58
2023/09/23 05:10:50;;;;;;;13.70;8.25;;;;;;;;;;2090400;28;20033;-59
2023/09/23 05:11:51;;;;;;;14.32;7.40;;;;;;;;;;2090138;28;20139;-59
2023/09/23 05:12:56;;;;;;;10.50;8.27;;;;;;;;;;2090179;28;20049;-62
2023/09/23 05:13:56;;;;;;;9.70;7.95;;;;;;;;;;2090232;28;20396;-59
2023/09/23 05:14:57;;;;;;;11.07;7.47;;;;;;;;;;2089766;28;20210;-59
2023/09/23 05:15:58;;;;;;;13.07;8.15;;;;;;;;;;2090588;28;20045;-59
2023/09/23 05:16:59;;;;;;;12.32;8.43;;;;;;;;;;2091885;28;20029;-59
2023/09/23 05:18:00;;;;;;;11.02;8.18;;;;;;;;;;2092118;28;20091;-59
2023/09/23 05:19:00;;;;;;;13.45;8.90;;;;;;;;;;2091977;28;20431;-59
2023/09/23 05:20:09;;;;;;;12.60;8.98;;;;;;;;;;2091556;28;20045;-59
2023/09/23 05:21:10;;;;;;;11.32;8.30;;;;;;;;;;2092080;28;20041;-59
2023/09/23 05:22:12;;;;;;;11.45;7.63;;;;;;;;;;2091537;28;20076;-59
2023/09/23 05:23:13;;;;;;;11.45;8.20;;;;;;;;;;2091969;28;20029;-58
2023/09/23 05:24:14;;;;;;;12.02;8.25;;;;;;;;;;2091778;28;20397;-59
2023/09/23 05:25:15;;;;;;;12.23;7.78;;;;;;;;;;2091898;28;20066;-59
2023/09/23 05:26:16;;;;;;;20.15;8.48;;;;;;;;;;2092177;28;20025;-58
2023/09/23 05:27:16;;;;;;;10.82;7.70;;;;;;;;;;2091695;28;20087;-59
2023/09/23 05:28:18;;;;;;;12.23;7.38;;;;;;;;;;2091775;28;20060;-59
2023/09/23 05:29:18;;;;;;;11.73;8.48;;;;;;;;;;2091685;28;20051;-59
2023/09/23 05:30:19;;;;;;;12.35;8.05;;;;;;;;;;2091923;28;20040;-59
2023/09/23 05:31:20;;;;;;;10.10;7.45;;;;;;;;;;2091363;28;20045;-59
2023/09/23 05:32:21;;;;;;;12.50;7.60;;;;;;;;;;2092112;28;20373;-58
2023/09/23 05:33:21;;;;;;;11.93;7.30;;;;;;;;;;2091401;28;20056;-59
2023/09/23 05:34:22;;;;;;;10.05;7.25;;;;;;;;;;2091893;28;20041;-58
2023/09/23 05:35:24;;;;;;;8.73;6.68;;;;;;;;;;2092448;28;20143;-59
2023/09/23 05:36:25;;;;;;;10.13;6.88;;;;;;;;;;2091685;28;20044;-59
2023/09/23 05:37:26;;;;;;;10.00;7.32;;;;;;;;;;2091689;28;20048;-58
2023/09/23 05:38:27;;;;;;;11.50;7.60;;;;;;;;;;2091712;28;20041;-59
2023/09/23 05:39:28;;;;;;;9.95;6.15;;;;;;;;;;2091693;28;20155;-59
2023/09/23 05:40:29;;;;;;;10.50;7.72;;;;;;;;;;2092126;28;20040;-58
2023/09/23 05:41:30;;;;;;;8.20;6.90;;;;;;;;;;2091795;28;20033;-58
2023/09/23 05:42:31;;;;;;;11.30;6.70;;;;;;;;;;2091927;28;20028;-58
2023/09/23 05:43:32;;;;;;;9.43;6.20;;;;;;;;;;2091636;28;20048;-58
2023/09/23 05:44:33;;;;;;;9.30;5.68;;;;;;;;;;2091717;28;20029;-59
2023/09/23 05:45:35;;;;;;;9.60;6.53;;;;;;;;;;2092409;28;20040;-58
2023/09/23 05:46:37;;;;;;;9.02;6.40;;;;;;;;;;2091095;28;20033;-59
2023/09/23 05:47:40;;;;;;;6.75;5.28;;;;;;;;;;2090786;28;20041;-59
2023/09/23 05:48:41;;;;;;;7.18;5.47;;;;;;;;;;2091378;28;20045;-59
2023/09/23 05:49:42;;;;;;;7.70;6.05;;;;;;;;;;2091422;28;20041;-59
2023/09/23 05:50:43;;;;;;;8.65;6.28;;;;;;;;;;2091800;28;20044;-58
2023/09/23 05:51:45;;;;;;;8.20;5.55;;;;;;;;;;2091320;28;20413;-59
2023/09/23 05:52:46;;;;;;;9.35;6.00;;;;;;;;;;2091395;28;20044;-58
2023/09/23 05:53:47;;;;;;;10.60;6.18;;;;;;;;;;2091668;28;20052;-58
2023/09/23 05:54:48;;;;;;;9.55;5.88;;;;;;;;;;2091694;28;20044;-58
2023/09/23 05:55:48;;;;;;;8.10;5.70;;;;;;;;;;2091643;28;20532;-58
2023/09/23 05:56:49;;;;;;;7.65;5.88;;;;;;;;;;2091571;28;20461;-59
2023/09/23 05:57:50;;;;;;;8.93;5.35;;;;;;;;;;2091549;28;20044;-59
2023/09/23 05:58:51;;;;;;;6.43;5.13;;;;;;;;;;2091459;28;20040;-58
2023/09/23 05:59:51;;;;;;;8.15;4.82;;;;;;;;;;2094396;28;20033;-59
2023/09/23 06:00:52;;;;;;;7.15;5.15;;;;;;;;;;2091658;28;20376;-58
2023/09/23 06:01:53;;;;;;;6.57;4.63;;;;;;;;;;2091242;28;20037;-58
2023/09/23 06:02:53;;;;;;;6.53;4.82;;;;;;;;;;2091884;28;20469;-59
2023/09/23 06:03:55;;;;;;;7.32;5.45;;;;;;;;;;2091615;28;20480;-59
2023/09/23 06:04:56;;;;;;;7.93;4.38;;;;;;;;;;2091732;28;20033;-59
2023/09/23 06:05:57;;;;;;;7.38;4.07;;;;;;;;;;2091198;28;20393;-58
2023/09/23 06:06:58;;;;;;;4.95;3.78;;;;;;;;;;2091206;28;20041;-59
2023/09/23 06:07:59;;;;;;;6.60;4.65;;;;;;;;;;2091814;28;20049;-58
2023/09/23 06:09:00;;;;;;;7.00;4.30;;;;;;;;;;2091768;28;20071;-58
2023/09/23 06:10:00;;;;;;;6.35;3.92;;;;;;;;;;2091237;28;20045;-59